sensor_id;sensor_type;location;lat;lon;timestamp;temperature;humidity
35894;DHT22;21994;48.204;16.516;2023-06-26T00:00:29;16.00;99.90
35894;DHT22;21994;48.204;16.516;2023-06-26T00:02:55;16.00;99.90
35894;DHT22;21994;48.204;16.516;2023-06-26T00:05:21;16.00;99.90
35894;DHT22;21994;48.204;16.516;2023-06-26T00:07:49;16.00;99.90
35894;DHT22;21994;48.204;16.516;2023-06-26T00:10:15;15.90;99.90
35894;DHT22;21994;48.204;16.516;2023-06-26T00:12:41;15.90;99.90
35894;DHT22;21994;48.204;16.516;2023-06-26T00:15:07;15.90;99.90
35894;DHT22;21994;48.204;16.516;2023-06-26T00:17:33;15.90;99.90
35894;DHT22;21994;48.204;16.516;2023-06-26T00:20:02;15.90;99.90
35894;DHT22;21994;48.204;16.516;2023-06-26T00:22:30;15.90;99.90
35894;DHT22;21994;48.204;16.516;2023-06-26T00:24:56;15.80;99.90
35894;DHT22;21994;48.204;16.516;2023-06-26T00:27:22;15.80;99.90
35894;DHT22;21994;48.204;16.516;2023-06-26T00:29:48;15.80;99.90
35894;DHT22;21994;48.204;16.516;2023-06-26T00:32:14;15.70;99.90
35894;DHT22;21994;48.204;16.516;2023-06-26T00:34:39;15.70;99.90
35894;DHT22;21994;48.204;16.516;2023-06-26T00:37:05;15.70;99.90
35894;DHT22;21994;48.204;16.516;2023-06-26T00:39:31;15.70;99.90
35894;DHT22;21994;48.204;16.516;2023-06-26T00:41:56;15.70;99.90
35894;DHT22;21994;48.204;16.516;2023-06-26T00:44:22;15.60;99.90
35894;DHT22;21994;48.204;16.516;2023-06-26T00:46:48;15.60;99.90
35894;DHT22;21994;48.204;16.516;2023-06-26T00:49:14;15.60;99.90
35894;DHT22;21994;48.204;16.516;2023-06-26T00:51:40;15.50;99.90
35894;DHT22;21994;48.204;16.516;2023-06-26T00:54:05;15.50;99.90
35894;DHT22;21994;48.204;16.516;2023-06-26T00:56:32;15.50;99.90
35894;DHT22;21994;48.204;16.516;2023-06-26T00:58:58;15.50;99.90
35894;DHT22;21994;48.204;16.516;2023-06-26T01:01:23;15.50;99.90
35894;DHT22;21994;48.204;16.516;2023-06-26T01:03:51;15.40;99.90
35894;DHT22;21994;48.204;16.516;2023-06-26T01:06:17;15.40;99.90
35894;DHT22;21994;48.204;16.516;2023-06-26T01:08:43;15.40;99.90
35894;DHT22;21994;48.204;16.516;2023-06-26T01:11:10;15.40;99.90
35894;DHT22;21994;48.204;16.516;2023-06-26T01:13:35;15.30;99.90
35894;DHT22;21994;48.204;16.516;2023-06-26T01:16:02;15.30;99.90
35894;DHT22;21994;48.204;16.516;2023-06-26T01:18:28;15.30;99.90
35894;DHT22;21994;48.204;16.516;2023-06-26T01:20:54;15.30;99.90
35894;DHT22;21994;48.204;16.516;2023-06-26T01:28:47;15.20;99.90
35894;DHT22;21994;48.204;16.516;2023-06-26T01:31:15;15.20;99.90
35894;DHT22;21994;48.204;16.516;2023-06-26T01:33:41;15.20;99.90
35894;DHT22;21994;48.204;16.516;2023-06-26T01:36:07;15.20;99.90
35894;DHT22;21994;48.204;16.516;2023-06-26T01:38:34;15.20;99.90
35894;DHT22;21994;48.204;16.516;2023-06-26T01:41:02;15.20;99.90
35894;DHT22;21994;48.204;16.516;2023-06-26T01:52:06;15.10;99.90
35894;DHT22;21994;48.204;16.516;2023-06-26T01:54:39;15.10;99.90
35894;DHT22;21994;48.204;16.516;2023-06-26T01:57:12;15.00;99.90
35894;DHT22;21994;48.204;16.516;2023-06-26T01:59:39;15.00;99.90
35894;DHT22;21994;48.204;16.516;2023-06-26T02:02:09;15.00;99.90
35894;DHT22;21994;48.204;16.516;2023-06-26T02:04:34;14.90;99.90
35894;DHT22;21994;48.204;16.516;2023-06-26T02:07:00;14.90;99.90
35894;DHT22;21994;48.204;16.516;2023-06-26T02:09:26;14.90;99.90
35894;DHT22;21994;48.204;16.516;2023-06-26T02:11:52;14.90;99.90
35894;DHT22;21994;48.204;16.516;2023-06-26T02:14:17;14.90;99.90
35894;DHT22;21994;48.204;16.516;2023-06-26T02:16:43;14.80;99.90
35894;DHT22;21994;48.204;16.516;2023-06-26T02:19:11;14.80;99.90
35894;DHT22;21994;48.204;16.516;2023-06-26T02:21:37;14.80;99.90
35894;DHT22;21994;48.204;16.516;2023-06-26T02:24:04;14.70;99.90
35894;DHT22;21994;48.204;16.516;2023-06-26T02:26:30;14.70;99.90
35894;DHT22;21994;48.204;16.516;2023-06-26T02:28:56;14.70;99.90
35894;DHT22;21994;48.204;16.516;2023-06-26T02:31:22;14.70;99.90
35894;DHT22;21994;48.204;16.516;2023-06-26T02:33:47;14.60;99.90
35894;DHT22;21994;48.204;16.516;2023-06-26T02:36:13;14.60;99.90
35894;DHT22;21994;48.204;16.516;2023-06-26T02:38:39;14.60;99.90
35894;DHT22;21994;48.204;16.516;2023-06-26T02:41:04;14.60;99.90
35894;DHT22;21994;48.204;16.516;2023-06-26T02:43:30;14.70;99.90
35894;DHT22;21994;48.204;16.516;2023-06-26T02:45:56;14.60;99.90
35894;DHT22;21994;48.204;16.516;2023-06-26T02:48:21;14.60;99.90
35894;DHT22;21994;48.204;16.516;2023-06-26T02:50:48;14.60;99.90
35894;DHT22;21994;48.204;16.516;2023-06-26T02:53:13;14.60;99.90
35894;DHT22;21994;48.204;16.516;2023-06-26T02:55:39;14.60;99.90
35894;DHT22;21994;48.204;16.516;2023-06-26T02:58:05;14.60;99.90
35894;DHT22;21994;48.204;16.516;2023-06-26T03:00:30;14.50;99.90
35894;DHT22;21994;48.204;16.516;2023-06-26T03:02:56;14.60;99.90
35894;DHT22;21994;48.204;16.516;2023-06-26T03:05:22;14.60;99.90
35894;DHT22;21994;48.204;16.516;2023-06-26T03:07:49;14.60;99.90
35894;DHT22;21994;48.204;16.516;2023-06-26T03:10:15;14.50;99.90
35894;DHT22;21994;48.204;16.516;2023-06-26T03:12:40;14.60;99.90
35894;DHT22;21994;48.204;16.516;2023-06-26T03:15:06;14.50;99.90
35894;DHT22;21994;48.204;16.516;2023-06-26T03:17:32;14.50;99.90
35894;DHT22;21994;48.204;16.516;2023-06-26T03:19:58;14.50;99.90
35894;DHT22;21994;48.204;16.516;2023-06-26T03:22:24;14.60;99.90
35894;DHT22;21994;48.204;16.516;2023-06-26T03:24:49;14.60;99.90
35894;DHT22;21994;48.204;16.516;2023-06-26T03:27:15;14.60;99.90
35894;DHT22;21994;48.204;16.516;2023-06-26T03:29:41;14.60;99.90
35894;DHT22;21994;48.204;16.516;2023-06-26T03:32:06;14.60;99.90
35894;DHT22;21994;48.204;16.516;2023-06-26T03:34:32;14.60;99.90
35894;DHT22;21994;48.204;16.516;2023-06-26T03:36:58;14.70;99.90
35894;DHT22;21994;48.204;16.516;2023-06-26T03:39:24;14.70;99.90
35894;DHT22;21994;48.204;16.516;2023-06-26T03:41:49;14.70;99.90
35894;DHT22;21994;48.204;16.516;2023-06-26T03:44:15;14.70;99.90
35894;DHT22;21994;48.204;16.516;2023-06-26T03:46:42;14.80;99.90
35894;DHT22;21994;48.204;16.516;2023-06-26T03:49:07;14.80;99.90
35894;DHT22;21994;48.204;16.516;2023-06-26T03:51:33;14.80;99.90
35894;DHT22;21994;48.204;16.516;2023-06-26T03:53:59;14.80;99.90
35894;DHT22;21994;48.204;16.516;2023-06-26T03:56:24;14.80;99.90
35894;DHT22;21994;48.204;16.516;2023-06-26T03:58:50;14.80;99.90
35894;DHT22;21994;48.204;16.516;2023-06-26T04:01:16;14.80;99.90
35894;DHT22;21994;48.204;16.516;2023-06-26T04:03:42;14.90;99.90
35894;DHT22;21994;48.204;16.516;2023-06-26T04:06:10;14.90;99.90
35894;DHT22;21994;48.204;16.516;2023-06-26T04:08:36;14.90;99.90
35894;DHT22;21994;48.204;16.516;2023-06-26T04:11:04;14.90;99.90
35894;DHT22;21994;48.204;16.516;2023-06-26T04:13:30;14.90;99.90
35894;DHT22;21994;48.204;16.516;2023-06-26T04:15:56;15.00;99.90
35894;DHT22;21994;48.204;16.516;2023-06-26T04:18:21;15.00;99.90
35894;DHT22;21994;48.204;16.516;2023-06-26T04:21:09;15.10;99.90
35894;DHT22;21994;48.204;16.516;2023-06-26T04:23:37;15.10;99.90
35894;DHT22;21994;48.204;16.516;2023-06-26T04:26:04;15.20;99.90
35894;DHT22;21994;48.204;16.516;2023-06-26T04:28:31;15.30;99.90
35894;DHT22;21994;48.204;16.516;2023-06-26T04:30:58;15.30;99.90
35894;DHT22;21994;48.204;16.516;2023-06-26T04:33:24;15.40;99.90
35894;DHT22;21994;48.204;16.516;2023-06-26T04:35:51;15.50;99.90
35894;DHT22;21994;48.204;16.516;2023-06-26T04:38:18;15.60;99.90
35894;DHT22;21994;48.204;16.516;2023-06-26T04:40:44;15.70;99.90
35894;DHT22;21994;48.204;16.516;2023-06-26T04:43:09;15.90;99.90
35894;DHT22;21994;48.204;16.516;2023-06-26T04:45:35;16.00;99.90
35894;DHT22;21994;48.204;16.516;2023-06-26T04:48:01;16.20;99.90
35894;DHT22;21994;48.204;16.516;2023-06-26T04:50:27;16.30;99.90
35894;DHT22;21994;48.204;16.516;2023-06-26T04:52:57;16.50;99.90
35894;DHT22;21994;48.204;16.516;2023-06-26T04:55:26;16.60;99.90
35894;DHT22;21994;48.204;16.516;2023-06-26T04:57:52;16.80;99.90
35894;DHT22;21994;48.204;16.516;2023-06-26T05:00:18;17.00;99.90
35894;DHT22;21994;48.204;16.516;2023-06-26T05:02:44;17.20;99.90
35894;DHT22;21994;48.204;16.516;2023-06-26T05:05:10;17.40;99.90
35894;DHT22;21994;48.204;16.516;2023-06-26T05:07:37;17.40;99.90
35894;DHT22;21994;48.204;16.516;2023-06-26T05:10:03;17.50;99.90
35894;DHT22;21994;48.204;16.516;2023-06-26T05:12:29;17.80;99.90
35894;DHT22;21994;48.204;16.516;2023-06-26T05:14:55;17.90;99.90
35894;DHT22;21994;48.204;16.516;2023-06-26T05:17:21;18.00;99.90
35894;DHT22;21994;48.204;16.516;2023-06-26T05:19:46;18.20;99.90
35894;DHT22;21994;48.204;16.516;2023-06-26T05:22:12;18.30;99.90
35894;DHT22;21994;48.204;16.516;2023-06-26T05:24:39;18.30;99.90
35894;DHT22;21994;48.204;16.516;2023-06-26T05:27:05;18.40;99.90
35894;DHT22;21994;48.204;16.516;2023-06-26T05:29:31;18.40;99.90
35894;DHT22;21994;48.204;16.516;2023-06-26T05:31:58;18.50;99.90
35894;DHT22;21994;48.204;16.516;2023-06-26T05:34:25;18.70;99.90
35894;DHT22;21994;48.204;16.516;2023-06-26T05:36:57;18.80;99.90
35894;DHT22;21994;48.204;16.516;2023-06-26T05:39:24;18.90;99.90
35894;DHT22;21994;48.204;16.516;2023-06-26T05:41:50;19.00;99.90
35894;DHT22;21994;48.204;16.516;2023-06-26T05:44:16;19.20;99.90
35894;DHT22;21994;48.204;16.516;2023-06-26T05:46:42;19.20;99.90
35894;DHT22;21994;48.204;16.516;2023-06-26T05:49:11;19.20;99.90
35894;DHT22;21994;48.204;16.516;2023-06-26T05:51:37;19.40;99.90
35894;DHT22;21994;48.204;16.516;2023-06-26T05:54:03;19.50;99.90
35894;DHT22;21994;48.204;16.516;2023-06-26T05:56:29;19.60;99.90
35894;DHT22;21994;48.204;16.516;2023-06-26T05:58:55;19.70;99.90
35894;DHT22;21994;48.204;16.516;2023-06-26T06:01:21;19.80;99.90
35894;DHT22;21994;48.204;16.516;2023-06-26T06:03:47;19.90;99.90
35894;DHT22;21994;48.204;16.516;2023-06-26T06:06:13;20.00;99.90
35894;DHT22;21994;48.204;16.516;2023-06-26T06:08:39;20.10;99.90
35894;DHT22;21994;48.204;16.516;2023-06-26T06:11:04;20.10;99.90
35894;DHT22;21994;48.204;16.516;2023-06-26T06:13:30;20.10;99.90
35894;DHT22;21994;48.204;16.516;2023-06-26T06:15:56;20.10;99.90
35894;DHT22;21994;48.204;16.516;2023-06-26T06:18:22;20.20;99.90
35894;DHT22;21994;48.204;16.516;2023-06-26T06:20:47;20.30;99.90
35894;DHT22;21994;48.204;16.516;2023-06-26T06:23:13;20.40;99.90
35894;DHT22;21994;48.204;16.516;2023-06-26T06:25:39;20.50;99.90
35894;DHT22;21994;48.204;16.516;2023-06-26T06:28:05;20.50;99.90
35894;DHT22;21994;48.204;16.516;2023-06-26T06:30:31;20.60;99.90
35894;DHT22;21994;48.204;16.516;2023-06-26T06:32:57;20.60;99.90
35894;DHT22;21994;48.204;16.516;2023-06-26T06:35:23;20.80;99.90
35894;DHT22;21994;48.204;16.516;2023-06-26T06:37:49;20.90;99.90
35894;DHT22;21994;48.204;16.516;2023-06-26T06:40:15;21.00;99.90
35894;DHT22;21994;48.204;16.516;2023-06-26T06:42:40;21.00;99.90
35894;DHT22;21994;48.204;16.516;2023-06-26T06:45:06;21.10;99.90
35894;DHT22;21994;48.204;16.516;2023-06-26T06:47:32;21.20;99.90
35894;DHT22;21994;48.204;16.516;2023-06-26T06:49:58;21.40;99.90
35894;DHT22;21994;48.204;16.516;2023-06-26T06:52:29;21.60;99.90
35894;DHT22;21994;48.204;16.516;2023-06-26T06:54:55;21.70;99.90
35894;DHT22;21994;48.204;16.516;2023-06-26T06:57:24;21.80;99.90
35894;DHT22;21994;48.204;16.516;2023-06-26T06:59:50;22.10;99.90
35894;DHT22;21994;48.204;16.516;2023-06-26T07:02:16;22.30;99.90
35894;DHT22;21994;48.204;16.516;2023-06-26T07:04:42;22.50;99.90
35894;DHT22;21994;48.204;16.516;2023-06-26T07:07:08;22.60;99.90
35894;DHT22;21994;48.204;16.516;2023-06-26T07:09:35;22.80;99.90
35894;DHT22;21994;48.204;16.516;2023-06-26T07:12:01;23.10;99.90
35894;DHT22;21994;48.204;16.516;2023-06-26T07:14:28;23.30;99.90
35894;DHT22;21994;48.204;16.516;2023-06-26T07:16:55;23.50;99.90
35894;DHT22;21994;48.204;16.516;2023-06-26T07:19:20;23.60;99.80
35894;DHT22;21994;48.204;16.516;2023-06-26T07:21:46;23.80;99.40
35894;DHT22;21994;48.204;16.516;2023-06-26T07:24:12;23.90;99.90
35894;DHT22;21994;48.204;16.516;2023-06-26T07:26:38;24.00;98.30
35894;DHT22;21994;48.204;16.516;2023-06-26T07:29:03;24.20;97.10
35894;DHT22;21994;48.204;16.516;2023-06-26T07:31:30;24.40;98.00
35894;DHT22;21994;48.204;16.516;2023-06-26T07:33:56;24.60;98.10
35894;DHT22;21994;48.204;16.516;2023-06-26T07:36:21;24.60;98.00
35894;DHT22;21994;48.204;16.516;2023-06-26T07:38:48;25.00;97.20
35894;DHT22;21994;48.204;16.516;2023-06-26T07:41:13;25.20;97.20
35894;DHT22;21994;48.204;16.516;2023-06-26T07:43:39;25.40;96.80
35894;DHT22;21994;48.204;16.516;2023-06-26T07:46:05;25.60;97.30
35894;DHT22;21994;48.204;16.516;2023-06-26T07:48:31;25.70;96.10
35894;DHT22;21994;48.204;16.516;2023-06-26T07:50:56;26.10;96.30
35894;DHT22;21994;48.204;16.516;2023-06-26T07:53:22;26.30;94.70
35894;DHT22;21994;48.204;16.516;2023-06-26T07:55:48;26.70;93.20
35894;DHT22;21994;48.204;16.516;2023-06-26T07:58:13;26.70;93.90
35894;DHT22;21994;48.204;16.516;2023-06-26T08:00:39;26.90;92.50
35894;DHT22;21994;48.204;16.516;2023-06-26T08:03:05;27.10;93.90
35894;DHT22;21994;48.204;16.516;2023-06-26T08:05:31;27.30;94.40
35894;DHT22;21994;48.204;16.516;2023-06-26T08:07:57;27.30;93.90
35894;DHT22;21994;48.204;16.516;2023-06-26T08:10:23;27.60;93.60
35894;DHT22;21994;48.204;16.516;2023-06-26T08:12:48;27.50;93.90
35894;DHT22;21994;48.204;16.516;2023-06-26T08:15:15;27.70;93.00
35894;DHT22;21994;48.204;16.516;2023-06-26T08:17:41;27.60;92.90
35894;DHT22;21994;48.204;16.516;2023-06-26T08:20:07;27.50;93.30
35894;DHT22;21994;48.204;16.516;2023-06-26T08:22:34;27.80;92.40
35894;DHT22;21994;48.204;16.516;2023-06-26T08:25:00;28.00;91.90
35894;DHT22;21994;48.204;16.516;2023-06-26T08:27:27;28.10;92.90
35894;DHT22;21994;48.204;16.516;2023-06-26T08:29:53;28.00;92.40
35894;DHT22;21994;48.204;16.516;2023-06-26T08:32:18;28.20;92.10
35894;DHT22;21994;48.204;16.516;2023-06-26T08:34:44;28.40;91.90
35894;DHT22;21994;48.204;16.516;2023-06-26T08:37:10;28.50;91.20
35894;DHT22;21994;48.204;16.516;2023-06-26T08:39:35;28.30;91.10
35894;DHT22;21994;48.204;16.516;2023-06-26T08:42:01;28.40;90.80
35894;DHT22;21994;48.204;16.516;2023-06-26T08:44:27;28.80;90.90
35894;DHT22;21994;48.204;16.516;2023-06-26T08:46:52;29.00;92.20
35894;DHT22;21994;48.204;16.516;2023-06-26T08:49:25;29.10;92.10
35894;DHT22;21994;48.204;16.516;2023-06-26T08:52:13;29.50;90.40
35894;DHT22;21994;48.204;16.516;2023-06-26T08:55:01;29.90;90.90
35894;DHT22;21994;48.204;16.516;2023-06-26T08:57:28;30.10;90.00
35894;DHT22;21994;48.204;16.516;2023-06-26T08:59:56;30.20;90.60
35894;DHT22;21994;48.204;16.516;2023-06-26T09:02:22;30.50;89.80
35894;DHT22;21994;48.204;16.516;2023-06-26T09:04:47;30.40;86.90
35894;DHT22;21994;48.204;16.516;2023-06-26T09:07:14;30.30;85.40
35894;DHT22;21994;48.204;16.516;2023-06-26T09:09:40;30.40;88.70
35894;DHT22;21994;48.204;16.516;2023-06-26T09:12:06;30.40;86.40
35894;DHT22;21994;48.204;16.516;2023-06-26T09:14:34;30.60;88.80
35894;DHT22;21994;48.204;16.516;2023-06-26T09:16:59;30.90;90.40
35894;DHT22;21994;48.204;16.516;2023-06-26T09:19:25;31.00;87.90
35894;DHT22;21994;48.204;16.516;2023-06-26T09:21:52;31.00;88.10
35894;DHT22;21994;48.204;16.516;2023-06-26T09:24:17;30.80;88.50
35894;DHT22;21994;48.204;16.516;2023-06-26T09:26:43;30.90;88.00
35894;DHT22;21994;48.204;16.516;2023-06-26T09:29:09;31.00;85.90
35894;DHT22;21994;48.204;16.516;2023-06-26T09:31:38;31.20;84.80
35894;DHT22;21994;48.204;16.516;2023-06-26T09:34:04;31.70;85.10
35894;DHT22;21994;48.204;16.516;2023-06-26T09:36:30;31.70;84.70
35894;DHT22;21994;48.204;16.516;2023-06-26T09:39:02;32.00;81.60
35894;DHT22;21994;48.204;16.516;2023-06-26T09:41:29;32.10;83.80
35894;DHT22;21994;48.204;16.516;2023-06-26T09:43:57;31.80;82.40
35894;DHT22;21994;48.204;16.516;2023-06-26T09:46:27;32.30;83.60
35894;DHT22;21994;48.204;16.516;2023-06-26T09:49:04;32.90;82.80
35894;DHT22;21994;48.204;16.516;2023-06-26T09:51:31;33.00;79.60
35894;DHT22;21994;48.204;16.516;2023-06-26T09:53:58;32.90;80.00
35894;DHT22;21994;48.204;16.516;2023-06-26T09:56:24;33.00;76.80
35894;DHT22;21994;48.204;16.516;2023-06-26T09:58:50;32.80;80.60
35894;DHT22;21994;48.204;16.516;2023-06-26T10:01:17;32.70;78.20
35894;DHT22;21994;48.204;16.516;2023-06-26T10:03:43;32.90;79.80
35894;DHT22;21994;48.204;16.516;2023-06-26T10:06:09;33.40;79.30
35894;DHT22;21994;48.204;16.516;2023-06-26T10:08:36;33.60;81.80
35894;DHT22;21994;48.204;16.516;2023-06-26T10:11:03;33.60;78.20
35894;DHT22;21994;48.204;16.516;2023-06-26T10:13:31;34.10;75.00
35894;DHT22;21994;48.204;16.516;2023-06-26T10:15:57;34.10;78.30
35894;DHT22;21994;48.204;16.516;2023-06-26T10:18:24;34.10;78.70
35894;DHT22;21994;48.204;16.516;2023-06-26T10:20:51;34.40;78.50
35894;DHT22;21994;48.204;16.516;2023-06-26T10:23:19;34.40;76.50
35894;DHT22;21994;48.204;16.516;2023-06-26T10:25:45;33.90;74.30
35894;DHT22;21994;48.204;16.516;2023-06-26T10:28:12;34.00;73.90
35894;DHT22;21994;48.204;16.516;2023-06-26T10:30:38;34.40;75.90
35894;DHT22;21994;48.204;16.516;2023-06-26T10:33:04;34.70;73.30
35894;DHT22;21994;48.204;16.516;2023-06-26T10:35:31;34.90;71.00
35894;DHT22;21994;48.204;16.516;2023-06-26T10:38:01;35.10;72.30
35894;DHT22;21994;48.204;16.516;2023-06-26T10:43:08;35.60;72.10
35894;DHT22;21994;48.204;16.516;2023-06-26T10:45:34;35.70;72.30
35894;DHT22;21994;48.204;16.516;2023-06-26T10:48:01;35.60;69.30
35894;DHT22;21994;48.204;16.516;2023-06-26T10:50:27;35.80;71.10
35894;DHT22;21994;48.204;16.516;2023-06-26T10:55:51;35.80;66.80
35894;DHT22;21994;48.204;16.516;2023-06-26T11:03:36;34.90;69.20
35894;DHT22;21994;48.204;16.516;2023-06-26T11:06:09;34.70;69.90
35894;DHT22;21994;48.204;16.516;2023-06-26T11:11:14;33.90;73.50
35894;DHT22;21994;48.204;16.516;2023-06-26T11:13:40;33.90;71.50
35894;DHT22;21994;48.204;16.516;2023-06-26T11:16:06;34.30;70.10
35894;DHT22;21994;48.204;16.516;2023-06-26T11:18:32;33.90;71.10
35894;DHT22;21994;48.204;16.516;2023-06-26T11:21:10;33.90;73.40
35894;DHT22;21994;48.204;16.516;2023-06-26T11:23:40;33.90;75.70
35894;DHT22;21994;48.204;16.516;2023-06-26T11:26:14;34.30;71.50
35894;DHT22;21994;48.204;16.516;2023-06-26T11:28:48;34.00;71.50
35894;DHT22;21994;48.204;16.516;2023-06-26T11:33:50;33.00;72.40
35894;DHT22;21994;48.204;16.516;2023-06-26T11:36:15;32.80;77.20
35894;DHT22;21994;48.204;16.516;2023-06-26T11:38:41;32.70;80.00
35894;DHT22;21994;48.204;16.516;2023-06-26T11:41:07;32.60;75.50
35894;DHT22;21994;48.204;16.516;2023-06-26T11:43:33;32.10;74.40
35894;DHT22;21994;48.204;16.516;2023-06-26T11:45:59;31.60;75.50
35894;DHT22;21994;48.204;16.516;2023-06-26T11:48:25;31.40;79.00
35894;DHT22;21994;48.204;16.516;2023-06-26T11:50:51;31.40;78.30
35894;DHT22;21994;48.204;16.516;2023-06-26T11:53:17;31.30;82.10
35894;DHT22;21994;48.204;16.516;2023-06-26T11:55:43;31.30;80.30
35894;DHT22;21994;48.204;16.516;2023-06-26T11:58:08;31.30;79.70
35894;DHT22;21994;48.204;16.516;2023-06-26T12:00:34;31.50;78.90
35894;DHT22;21994;48.204;16.516;2023-06-26T12:03:00;31.50;80.00
35894;DHT22;21994;48.204;16.516;2023-06-26T12:05:26;31.60;79.40
35894;DHT22;21994;48.204;16.516;2023-06-26T12:07:52;31.60;82.70
35894;DHT22;21994;48.204;16.516;2023-06-26T12:10:18;31.60;77.70
35894;DHT22;21994;48.204;16.516;2023-06-26T12:12:45;31.70;79.50
35894;DHT22;21994;48.204;16.516;2023-06-26T12:15:14;31.90;78.50
35894;DHT22;21994;48.204;16.516;2023-06-26T12:17:41;31.90;77.20
35894;DHT22;21994;48.204;16.516;2023-06-26T12:20:17;31.60;80.10
35894;DHT22;21994;48.204;16.516;2023-06-26T12:22:47;31.70;81.00
35894;DHT22;21994;48.204;16.516;2023-06-26T12:25:14;31.70;81.70
35894;DHT22;21994;48.204;16.516;2023-06-26T12:27:40;31.60;74.80
35894;DHT22;21994;48.204;16.516;2023-06-26T12:30:06;31.50;78.90
35894;DHT22;21994;48.204;16.516;2023-06-26T12:32:32;31.20;75.20
35894;DHT22;21994;48.204;16.516;2023-06-26T12:35:00;31.20;77.20
35894;DHT22;21994;48.204;16.516;2023-06-26T12:37:26;31.20;80.40
35894;DHT22;21994;48.204;16.516;2023-06-26T12:39:52;31.40;78.90
35894;DHT22;21994;48.204;16.516;2023-06-26T12:42:20;31.50;78.40
35894;DHT22;21994;48.204;16.516;2023-06-26T12:44:49;31.50;79.30
35894;DHT22;21994;48.204;16.516;2023-06-26T12:47:15;31.60;78.10
35894;DHT22;21994;48.204;16.516;2023-06-26T12:49:43;31.70;81.00
35894;DHT22;21994;48.204;16.516;2023-06-26T12:52:14;31.60;76.20
35894;DHT22;21994;48.204;16.516;2023-06-26T12:54:41;31.50;78.30
35894;DHT22;21994;48.204;16.516;2023-06-26T12:57:08;31.20;77.60
35894;DHT22;21994;48.204;16.516;2023-06-26T12:59:38;31.30;81.90
35894;DHT22;21994;48.204;16.516;2023-06-26T13:02:04;31.20;77.20
35894;DHT22;21994;48.204;16.516;2023-06-26T13:04:30;31.00;77.00
35894;DHT22;21994;48.204;16.516;2023-06-26T13:06:56;30.70;77.60
35894;DHT22;21994;48.204;16.516;2023-06-26T13:09:23;30.20;77.50
35894;DHT22;21994;48.204;16.516;2023-06-26T13:11:50;30.10;81.70
35894;DHT22;21994;48.204;16.516;2023-06-26T13:14:17;29.60;81.00
35894;DHT22;21994;48.204;16.516;2023-06-26T13:16:42;29.80;81.00
35894;DHT22;21994;48.204;16.516;2023-06-26T13:19:08;29.50;77.60
35894;DHT22;21994;48.204;16.516;2023-06-26T13:21:34;29.50;77.90
35894;DHT22;21994;48.204;16.516;2023-06-26T13:24:00;29.30;78.70
35894;DHT22;21994;48.204;16.516;2023-06-26T13:26:27;29.50;80.80
35894;DHT22;21994;48.204;16.516;2023-06-26T13:28:54;29.40;77.30
35894;DHT22;21994;48.204;16.516;2023-06-26T13:31:20;29.10;78.90
35894;DHT22;21994;48.204;16.516;2023-06-26T13:33:47;28.90;79.50
35894;DHT22;21994;48.204;16.516;2023-06-26T13:36:17;29.20;79.30
35894;DHT22;21994;48.204;16.516;2023-06-26T13:38:43;29.60;83.50
35894;DHT22;21994;48.204;16.516;2023-06-26T13:41:09;29.70;82.30
35894;DHT22;21994;48.204;16.516;2023-06-26T13:43:35;30.00;80.60
35894;DHT22;21994;48.204;16.516;2023-06-26T13:46:01;30.30;78.00
35894;DHT22;21994;48.204;16.516;2023-06-26T13:48:28;30.40;79.30
35894;DHT22;21994;48.204;16.516;2023-06-26T13:50:54;30.60;83.10
35894;DHT22;21994;48.204;16.516;2023-06-26T13:53:20;30.80;79.70
35894;DHT22;21994;48.204;16.516;2023-06-26T13:55:46;31.00;75.10
35894;DHT22;21994;48.204;16.516;2023-06-26T13:58:11;31.00;81.10
35894;DHT22;21994;48.204;16.516;2023-06-26T14:00:38;31.20;78.80
35894;DHT22;21994;48.204;16.516;2023-06-26T14:03:05;31.20;77.90
35894;DHT22;21994;48.204;16.516;2023-06-26T14:05:35;31.30;78.10
35894;DHT22;21994;48.204;16.516;2023-06-26T14:08:02;31.40;82.70
35894;DHT22;21994;48.204;16.516;2023-06-26T14:10:28;31.50;83.30
35894;DHT22;21994;48.204;16.516;2023-06-26T14:12:54;31.60;85.70
35894;DHT22;21994;48.204;16.516;2023-06-26T14:15:20;31.70;78.40
35894;DHT22;21994;48.204;16.516;2023-06-26T14:17:45;31.90;78.00
35894;DHT22;21994;48.204;16.516;2023-06-26T14:20:13;31.90;80.40
35894;DHT22;21994;48.204;16.516;2023-06-26T14:22:39;31.80;75.70
35894;DHT22;21994;48.204;16.516;2023-06-26T14:25:12;31.70;77.50
35894;DHT22;21994;48.204;16.516;2023-06-26T14:27:38;31.90;78.50
35894;DHT22;21994;48.204;16.516;2023-06-26T14:30:04;31.40;76.40
35894;DHT22;21994;48.204;16.516;2023-06-26T14:32:31;31.40;76.30
35894;DHT22;21994;48.204;16.516;2023-06-26T14:34:57;31.20;75.80
35894;DHT22;21994;48.204;16.516;2023-06-26T14:37:23;31.00;79.70
35894;DHT22;21994;48.204;16.516;2023-06-26T14:39:49;31.00;78.30
35894;DHT22;21994;48.204;16.516;2023-06-26T14:42:18;31.10;75.30
35894;DHT22;21994;48.204;16.516;2023-06-26T14:44:44;31.00;82.80
35894;DHT22;21994;48.204;16.516;2023-06-26T14:47:12;31.00;77.60
35894;DHT22;21994;48.204;16.516;2023-06-26T14:49:39;31.10;77.10
35894;DHT22;21994;48.204;16.516;2023-06-26T14:52:05;31.10;76.70
35894;DHT22;21994;48.204;16.516;2023-06-26T14:54:31;31.10;76.70
35894;DHT22;21994;48.204;16.516;2023-06-26T14:56:58;31.00;77.50
35894;DHT22;21994;48.204;16.516;2023-06-26T14:59:23;30.70;74.40
35894;DHT22;21994;48.204;16.516;2023-06-26T15:01:49;30.80;79.70
35894;DHT22;21994;48.204;16.516;2023-06-26T15:04:15;31.10;79.80
35894;DHT22;21994;48.204;16.516;2023-06-26T15:06:40;31.20;77.40
35894;DHT22;21994;48.204;16.516;2023-06-26T15:09:06;30.90;78.70
35894;DHT22;21994;48.204;16.516;2023-06-26T15:11:34;30.80;78.20
35894;DHT22;21994;48.204;16.516;2023-06-26T15:14:00;31.10;79.40
35894;DHT22;21994;48.204;16.516;2023-06-26T15:16:26;31.10;79.20
35894;DHT22;21994;48.204;16.516;2023-06-26T15:18:52;31.10;80.10
35894;DHT22;21994;48.204;16.516;2023-06-26T15:21:18;30.90;77.10
35894;DHT22;21994;48.204;16.516;2023-06-26T15:23:44;31.10;80.00
35894;DHT22;21994;48.204;16.516;2023-06-26T15:26:11;31.20;76.70
35894;DHT22;21994;48.204;16.516;2023-06-26T15:28:36;31.10;76.00
35894;DHT22;21994;48.204;16.516;2023-06-26T15:31:02;31.20;77.00
35894;DHT22;21994;48.204;16.516;2023-06-26T15:33:28;31.20;78.70
35894;DHT22;21994;48.204;16.516;2023-06-26T15:35:53;31.10;76.80
35894;DHT22;21994;48.204;16.516;2023-06-26T15:38:29;30.90;82.40
35894;DHT22;21994;48.204;16.516;2023-06-26T15:40:55;30.90;76.50